createdAt,value
2023-01-06T00:01:12.380Z,101295.81
2023-01-06T00:03:39.992Z,101294.84
2023-01-06T00:06:10.354Z,101286.06
2023-01-06T00:08:38.576Z,101290.44
2023-01-06T00:11:06.875Z,101273.72
2023-01-06T00:13:34.524Z,101279.84
2023-01-06T00:16:05.983Z,101274.50
2023-01-06T00:18:34.959Z,101266.56
2023-01-06T00:21:03.448Z,101278.00
2023-01-06T00:23:31.139Z,101267.47
2023-01-06T00:25:58.794Z,101262.19
2023-01-06T00:28:26.429Z,101256.94
2023-01-06T00:30:54.323Z,101256.06
2023-01-06T00:33:22.242Z,101264.00
2023-01-06T00:35:51.285Z,101259.59
2023-01-06T00:38:18.990Z,101248.22
2023-01-06T00:40:48.066Z,101246.47
2023-01-06T00:43:15.601Z,101248.22
2023-01-06T00:45:43.361Z,101241.25
2023-01-06T00:48:10.903Z,101236.84
2023-01-06T00:50:38.516Z,101240.41
2023-01-06T00:53:07.952Z,101235.13
2023-01-06T00:55:36.361Z,101230.78
2023-01-06T00:58:04.000Z,101233.41
2023-01-06T01:00:31.743Z,101231.66
2023-01-06T01:02:59.989Z,101229.94
2023-01-06T01:05:27.494Z,101233.47
2023-01-06T01:07:54.986Z,101238.72
2023-01-06T01:10:23.816Z,101248.44
2023-01-06T01:12:54.064Z,101243.25
2023-01-06T01:15:22.442Z,101237.09
2023-01-06T01:17:50.074Z,101238.94
2023-01-06T01:20:17.751Z,101230.19
2023-01-06T01:22:45.340Z,101233.72
2023-01-06T01:25:12.838Z,101241.66
2023-01-06T01:27:42.474Z,101232.91
2023-01-06T01:30:10.828Z,101237.47
2023-01-06T01:32:38.347Z,101236.69
2023-01-06T01:35:06.590Z,101243.78
2023-01-06T01:37:34.143Z,101235.03
2023-01-06T01:40:01.667Z,101231.56
2023-01-06T01:42:29.212Z,101231.56
2023-01-06T01:45:01.330Z,101223.69
2023-01-06T01:47:44.479Z,101251.00
2023-01-06T01:50:32.480Z,101226.41
2023-01-06T01:53:08.567Z,101219.38
2023-01-06T01:55:38.067Z,101221.13
2023-01-06T01:58:10.949Z,101208.00
2023-01-06T02:00:42.089Z,101208.81
2023-01-06T02:03:11.163Z,101202.72
2023-01-06T02:05:42.172Z,101200.97
2023-01-06T02:08:20.096Z,101189.53
2023-01-06T02:10:47.722Z,101191.28
2023-01-06T02:13:15.241Z,101181.63
2023-01-06T02:15:44.593Z,101186.00
2023-01-06T02:18:34.249Z,101187.78
2023-01-06T02:21:28.978Z,101186.88
2023-01-06T02:24:14.603Z,101191.28
2023-01-06T02:27:26.839Z,101186.88
2023-01-06T02:30:27.862Z,101175.38
2023-01-06T02:33:09.722Z,101178.97
2023-01-06T02:35:55.804Z,101175.44
2023-01-06T02:38:35.817Z,101166.66
2023-01-06T02:41:13.999Z,101163.19
2023-01-06T02:43:52.616Z,101162.31
2023-01-06T02:46:29.221Z,101163.19
2023-01-06T02:49:08.223Z,101159.72
2023-01-06T02:51:46.345Z,101159.72
2023-01-06T02:54:21.785Z,101162.31
2023-01-06T02:56:58.154Z,101144.75
2023-01-06T02:59:30.202Z,101140.38
2023-01-06T03:02:00.869Z,101145.63
2023-01-06T03:04:34.516Z,101141.25
2023-01-06T03:07:04.745Z,101129.81
2023-01-06T03:09:38.396Z,101127.13
2023-01-06T03:12:13.332Z,101128.06
2023-01-06T03:14:45.606Z,101125.41
2023-01-06T03:17:13.884Z,101124.53
2023-01-06T03:19:44.200Z,101120.09
2023-01-06T03:22:14.228Z,101113.94
2023-01-06T03:24:43.801Z,101111.34
2023-01-06T03:27:11.660Z,101106.06
2023-01-06T03:29:40.875Z,101121.03
2023-01-06T03:32:17.930Z,101112.22
2023-01-06T03:34:57.698Z,101107.84
2023-01-06T03:37:32.574Z,101107.84
2023-01-06T03:40:10.811Z,101110.47
2023-01-06T03:43:01.328Z,101107.00
2023-01-06T03:45:43.005Z,101105.22
2023-01-06T03:48:19.285Z,101091.19
2023-01-06T03:50:51.786Z,101094.69
2023-01-06T03:53:27.034Z,101089.44
2023-01-06T03:56:01.959Z,101089.44
2023-01-06T03:58:31.223Z,101085.06
2023-01-06T04:01:00.127Z,101073.63
2023-01-06T04:03:28.056Z,101072.78
2023-01-06T04:05:57.320Z,101073.63
2023-01-06T04:08:26.680Z,101076.28
2023-01-06T04:10:54.239Z,101074.53
2023-01-06T04:13:21.155Z,101080.72
2023-01-06T04:15:48.819Z,101071.91
2023-01-06T04:18:16.377Z,101075.38
2023-01-06T04:20:44.501Z,101064.81
2023-01-06T04:23:20.509Z,101063.03
2023-01-06T04:25:48.225Z,101069.19
2023-01-06T04:28:25.636Z,101066.53
2023-01-06T04:30:53.999Z,101068.28
2023-01-06T04:33:21.518Z,101064.75
2023-01-06T04:35:50.686Z,101064.72
2023-01-06T04:38:22.014Z,101055.94
2023-01-06T04:40:49.662Z,101045.34
2023-01-06T04:43:18.062Z,101052.41
2023-01-06T04:45:45.644Z,101054.16
2023-01-06T04:48:14.551Z,101040.16
2023-01-06T04:50:42.108Z,101034.94
2023-01-06T04:53:11.933Z,101041.97
2023-01-06T04:55:41.710Z,101042.00
2023-01-06T04:58:09.949Z,101037.63
2023-01-06T05:00:37.564Z,101023.59
2023-01-06T05:03:05.129Z,101020.13
2023-01-06T05:05:32.670Z,101019.31
2023-01-06T05:08:00.292Z,101021.09
2023-01-06T05:10:27.930Z,101015.81
2023-01-06T05:12:56.808Z,101022.91
2023-01-06T05:15:24.331Z,101023.78
2023-01-06T05:17:51.885Z,101021.16
2023-01-06T05:20:19.564Z,101020.28
2023-01-06T05:22:47.064Z,101023.81
2023-01-06T05:25:14.623Z,101029.03
2023-01-06T05:27:42.121Z,101030.81
2023-01-06T05:30:12.337Z,101043.13
2023-01-06T05:32:39.871Z,101037.84
2023-01-06T05:35:08.143Z,101039.59
2023-01-06T05:37:36.014Z,101012.41
2023-01-06T05:40:03.727Z,101006.28
2023-01-06T05:42:31.255Z,101002.81
2023-01-06T05:44:58.793Z,100992.34
2023-01-06T05:47:27.631Z,100990.63
2023-01-06T05:49:55.152Z,100989.81
2023-01-06T05:52:22.625Z,100992.50
2023-01-06T05:54:50.160Z,101004.84
2023-01-06T05:57:18.019Z,100986.38
2023-01-06T05:59:45.535Z,101005.75
2023-01-06T06:02:13.120Z,100996.03
2023-01-06T06:04:41.956Z,100993.38
2023-01-06T06:07:09.519Z,100984.56
2023-01-06T06:09:37.030Z,100980.13
2023-01-06T06:12:04.933Z,100973.13
2023-01-06T06:14:32.447Z,100978.44
2023-01-06T06:17:00.003Z,100980.22
2023-01-06T06:19:27.534Z,100984.69
2023-01-06T06:21:56.411Z,100972.44
2023-01-06T06:24:23.961Z,100978.66
2023-01-06T06:26:51.633Z,100974.38
2023-01-06T06:29:19.677Z,100983.22
2023-01-06T06:31:47.345Z,100988.56
2023-01-06T06:34:14.905Z,100984.25
2023-01-06T06:36:42.507Z,100984.28
2023-01-06T06:39:11.363Z,100978.16
2023-01-06T06:41:39.017Z,100972.94
2023-01-06T06:44:06.706Z,100973.00
2023-01-06T06:46:34.199Z,100967.72
2023-01-06T06:49:01.737Z,100966.88
2023-01-06T06:51:31.139Z,100975.69
2023-01-06T06:53:58.724Z,100977.50
2023-01-06T06:56:27.551Z,100965.22
2023-01-06T06:58:55.085Z,100966.16
2023-01-06T07:01:23.142Z,100971.47
2023-01-06T07:03:50.899Z,100979.44
2023-01-06T07:06:21.075Z,100981.22
2023-01-06T07:08:49.490Z,100975.09
2023-01-06T07:11:17.065Z,100983.91
2023-01-06T07:13:45.943Z,100979.53
2023-01-06T07:16:13.743Z,100966.34
2023-01-06T07:18:41.599Z,100961.97
2023-01-06T07:21:09.545Z,100956.69
2023-01-06T07:23:37.046Z,100962.00
2023-01-06T07:26:05.166Z,100962.00
2023-01-06T07:28:34.043Z,100955.84
2023-01-06T07:31:03.051Z,100965.56
2023-01-06T07:33:30.674Z,100963.81
2023-01-06T07:35:59.197Z,100961.19
2023-01-06T07:38:26.900Z,100958.56
2023-01-06T07:40:54.668Z,100941.78
2023-01-06T07:43:22.177Z,100955.88
2023-01-06T07:45:49.871Z,100955.88
2023-01-06T07:48:19.004Z,100954.13
2023-01-06T07:50:46.491Z,100946.19
2023-01-06T07:53:14.350Z,100953.25
2023-01-06T07:55:41.916Z,100952.38
2023-01-06T07:58:10.873Z,100958.56
2023-01-06T08:00:38.943Z,100965.66
2023-01-06T08:03:08.474Z,100973.56
2023-01-06T08:05:41.402Z,100974.47
2023-01-06T08:08:09.614Z,100966.56
2023-01-06T08:10:40.127Z,100958.66
2023-01-06T08:13:08.119Z,100961.31
2023-01-06T08:15:36.471Z,100955.16
2023-01-06T08:18:04.044Z,100953.44
2023-01-06T08:20:31.578Z,100956.13
2023-01-06T08:23:00.463Z,100964.94
2023-01-06T08:25:28.008Z,100957.03
2023-01-06T08:27:55.543Z,100951.75
2023-01-06T08:30:23.103Z,100941.19
2023-01-06T08:32:50.651Z,100948.28
2023-01-06T08:35:18.275Z,100951.00
2023-01-06T08:37:45.788Z,100955.41
2023-01-06T08:40:14.816Z,100954.59
2023-01-06T08:42:42.501Z,100951.09
2023-01-06T08:45:10.113Z,100954.69
2023-01-06T08:47:37.638Z,100963.50
2023-01-06T08:50:06.134Z,100957.34
2023-01-06T08:52:33.666Z,100957.34
2023-01-06T08:55:01.267Z,100940.59
2023-01-06T08:57:30.157Z,100943.25
2023-01-06T08:59:57.764Z,100947.69
2023-01-06T09:02:27.268Z,100948.56
2023-01-06T09:04:54.993Z,100937.09
2023-01-06T09:07:22.637Z,100949.47
2023-01-06T09:09:50.407Z,100944.22
2023-01-06T09:12:18.084Z,100961.84
2023-01-06T09:14:47.151Z,100953.06
2023-01-06T09:17:14.758Z,100953.09
2023-01-06T09:19:42.347Z,100951.34
2023-01-06T09:22:09.857Z,100954.03
2023-01-06T09:24:37.460Z,100951.44
2023-01-06T09:27:04.963Z,100943.53
2023-01-06T09:29:32.509Z,100945.31
2023-01-06T09:32:01.527Z,100951.53
2023-01-06T09:34:29.339Z,100947.16
2023-01-06T09:36:56.953Z,100942.78
2023-01-06T09:39:24.563Z,100942.84
2023-01-06T09:42:14.893Z,100941.09
2023-01-06T09:44:49.581Z,100935.84
2023-01-06T09:47:22.677Z,100940.28
2023-01-06T09:49:54.472Z,100938.59
2023-01-06T09:52:27.911Z,100935.06
2023-01-06T09:54:59.630Z,100937.75
2023-01-06T09:57:33.558Z,100938.66
2023-01-06T10:00:05.040Z,100932.50
2023-01-06T10:02:38.540Z,100926.34
2023-01-06T10:05:20.658Z,100911.38
2023-01-06T10:07:54.656Z,100924.69
2023-01-06T10:10:34.630Z,100916.78
2023-01-06T10:13:24.680Z,100905.31
2023-01-06T10:16:01.843Z,100905.38
2023-01-06T10:18:41.073Z,100912.50
2023-01-06T10:21:18.583Z,100900.16
2023-01-06T10:24:05.721Z,100887.81
2023-01-06T10:26:42.064Z,100887.00
2023-01-06T10:29:15.933Z,100869.38
2023-01-06T10:31:45.837Z,100872.91
2023-01-06T10:34:21.480Z,100869.41
2023-01-06T10:36:54.424Z,100876.53
2023-01-06T10:39:26.256Z,100872.13
2023-01-06T10:42:16.095Z,100867.72
2023-01-06T10:44:43.683Z,100866.00
2023-01-06T10:47:19.542Z,100857.19
2023-01-06T10:49:48.583Z,100853.75
2023-01-06T10:52:16.316Z,100842.31
2023-01-06T10:54:45.198Z,100846.81
2023-01-06T10:57:19.202Z,100853.91
2023-01-06T11:00:10.210Z,100860.13
2023-01-06T11:02:38.019Z,100853.06
2023-01-06T11:05:07.632Z,100865.44
2023-01-06T11:07:35.358Z,100868.97
2023-01-06T11:10:23.425Z,100861.91
2023-01-06T11:12:52.063Z,100853.06
2023-01-06T11:15:22.839Z,100851.28
2023-01-06T11:17:50.460Z,100855.72
2023-01-06T11:20:35.284Z,100854.84
2023-01-06T11:23:22.578Z,100861.06
2023-01-06T11:26:02.991Z,100852.19
2023-01-06T11:28:31.172Z,100853.09
2023-01-06T11:31:03.031Z,100860.16
2023-01-06T11:33:32.906Z,100861.94
2023-01-06T11:36:09.265Z,100855.75
2023-01-06T11:38:43.877Z,100867.25
2023-01-06T11:41:13.775Z,100853.09
2023-01-06T11:43:45.120Z,100854.88
2023-01-06T11:46:16.270Z,100854.00
2023-01-06T11:48:47.683Z,100854.00
2023-01-06T11:51:31.925Z,100848.72
2023-01-06T11:54:01.454Z,100859.31
2023-01-06T11:56:29.027Z,100852.28
2023-01-06T11:59:08.301Z,100852.28
2023-01-06T12:01:43.145Z,100856.69
2023-01-06T12:04:20.583Z,100863.78
2023-01-06T12:06:55.227Z,100862.91
2023-01-06T12:09:27.569Z,100866.44
2023-01-06T12:11:56.725Z,100868.19
2023-01-06T12:14:29.496Z,100854.91
2023-01-06T12:17:05.447Z,100848.72
2023-01-06T12:19:40.246Z,100850.50
2023-01-06T12:22:21.757Z,100851.38
2023-01-06T12:24:52.076Z,100839.00
2023-01-06T12:27:28.727Z,100846.97
2023-01-06T12:30:02.132Z,100842.53
2023-01-06T12:32:37.324Z,100847.81
2023-01-06T12:35:07.683Z,100846.94
2023-01-06T12:37:40.708Z,100838.13
2023-01-06T12:40:16.799Z,100845.16
2023-01-06T12:42:52.802Z,100851.38
2023-01-06T12:45:29.395Z,100857.56
2023-01-06T12:47:59.258Z,100857.56
2023-01-06T12:50:34.532Z,100853.16
2023-01-06T12:53:19.780Z,100872.59
2023-01-06T12:56:00.086Z,100886.75
2023-01-06T12:58:36.231Z,100885.00
2023-01-06T13:01:10.379Z,100885.88
2023-01-06T13:04:13.723Z,100892.91
2023-01-06T13:06:58.610Z,100885.84
2023-01-06T13:09:39.707Z,100884.09
2023-01-06T13:12:23.752Z,100878.75
2023-01-06T13:14:58.754Z,100872.56
2023-01-06T13:17:33.192Z,100869.88
2023-01-06T13:20:03.057Z,100881.38
2023-01-06T13:22:44.702Z,100886.69
2023-01-06T13:25:34.578Z,100889.31
2023-01-06T13:28:09.427Z,100891.09
2023-01-06T13:31:04.465Z,100894.59
2023-01-06T13:33:49.218Z,100899.00
2023-01-06T13:36:43.931Z,100891.94
2023-01-06T13:39:15.690Z,100891.94
2023-01-06T13:41:49.822Z,100885.75
2023-01-06T13:44:21.802Z,100890.19
2023-01-06T13:46:51.638Z,100897.28
2023-01-06T13:49:20.574Z,100888.44
2023-01-06T13:51:48.636Z,100902.59
2023-01-06T13:54:52.680Z,100900.84
2023-01-06T13:57:31.376Z,100906.19
2023-01-06T14:00:16.940Z,100910.63
2023-01-06T14:03:16.170Z,100915.03
2023-01-06T14:05:55.280Z,100920.34
2023-01-06T14:08:25.048Z,100928.28
2023-01-06T14:11:02.864Z,100925.63
2023-01-06T14:13:35.695Z,100930.94
2023-01-06T14:16:07.935Z,100939.81
2023-01-06T14:18:44.207Z,100949.50
2023-01-06T14:21:23.171Z,100936.28
2023-01-06T14:23:53.882Z,100937.13
2023-01-06T14:26:21.813Z,100936.22
2023-01-06T14:28:50.728Z,100933.56
2023-01-06T14:31:50.873Z,100937.09
2023-01-06T14:34:19.816Z,100938.84
2023-01-06T14:36:54.637Z,100931.72
2023-01-06T14:39:26.042Z,100950.31
2023-01-06T14:42:01.878Z,100955.59
2023-01-06T14:44:44.219Z,100968.81
2023-01-06T14:47:17.666Z,100959.97
2023-01-06T14:49:50.325Z,100961.72
2023-01-06T14:52:20.719Z,100961.72
2023-01-06T14:54:50.339Z,100962.53
2023-01-06T14:57:26.046Z,100971.34
2023-01-06T15:00:09.700Z,100973.09
2023-01-06T15:02:39.156Z,100981.91
2023-01-06T15:05:07.714Z,100981.84
2023-01-06T15:07:35.337Z,100980.94
2023-01-06T15:10:22.163Z,100992.41
2023-01-06T15:12:57.184Z,100989.69
2023-01-06T15:15:31.449Z,100990.56
2023-01-06T15:18:01.890Z,100986.97
2023-01-06T15:20:32.895Z,100986.06
2023-01-06T15:23:00.838Z,100982.50
2023-01-06T15:25:30.558Z,100982.44
2023-01-06T15:27:58.338Z,100978.00
2023-01-06T15:30:29.384Z,100976.19
2023-01-06T15:32:57.779Z,100991.19
2023-01-06T15:35:28.714Z,100993.78
2023-01-06T15:38:01.778Z,100991.97
2023-01-06T15:40:30.426Z,100998.13
2023-01-06T15:42:58.466Z,101011.31
2023-01-06T15:45:33.355Z,101005.94
2023-01-06T15:48:09.882Z,101005.91
2023-01-06T15:50:37.773Z,101002.31
2023-01-06T15:53:19.054Z,100997.88
2023-01-06T15:55:50.788Z,101002.19
2023-01-06T15:58:27.762Z,100999.50
2023-01-06T16:01:02.308Z,100999.44
2023-01-06T16:03:32.437Z,100997.66
2023-01-06T16:06:11.613Z,101001.16
2023-01-06T16:08:39.670Z,101002.88
2023-01-06T16:11:13.265Z,100999.28
2023-01-06T16:13:41.226Z,101001.00
2023-01-06T16:16:28.420Z,101004.50
2023-01-06T16:18:56.832Z,101010.63
2023-01-06T16:21:27.930Z,101007.06
2023-01-06T16:23:57.552Z,101007.00
2023-01-06T16:26:27.835Z,101010.44
2023-01-06T16:28:57.081Z,101006.00
2023-01-06T16:31:34.074Z,101008.56
2023-01-06T16:34:24.541Z,101007.56
2023-01-06T16:36:53.548Z,101015.50
2023-01-06T16:39:21.173Z,101018.13
2023-01-06T16:42:39.686Z,101026.03
2023-01-06T16:45:11.227Z,101026.91
2023-01-06T16:47:40.656Z,101033.06
2023-01-06T16:50:17.994Z,101035.66
2023-01-06T16:52:48.066Z,101031.19
2023-01-06T16:55:16.901Z,101044.34
2023-01-06T16:57:49.293Z,101032.81
2023-01-06T17:00:19.062Z,101033.63
2023-01-06T17:02:49.458Z,101038.84
2023-01-06T17:05:26.320Z,101037.88
2023-01-06T17:07:58.168Z,101039.53
2023-01-06T17:10:26.269Z,101038.53
2023-01-06T17:13:14.694Z,101049.00
2023-01-06T17:15:42.545Z,101047.16
2023-01-06T17:18:26.600Z,101053.22
2023-01-06T17:20:59.826Z,101055.84
2023-01-06T17:23:27.434Z,101056.66
2023-01-06T17:26:01.438Z,101055.75
2023-01-06T17:28:31.788Z,101060.16
2023-01-06T17:31:00.825Z,101067.09
2023-01-06T17:33:31.208Z,101072.34
2023-01-06T17:35:59.818Z,101070.47
2023-01-06T17:38:27.488Z,101072.19
2023-01-06T17:40:56.631Z,101070.34
2023-01-06T17:43:30.516Z,101069.44
2023-01-06T17:45:58.404Z,101067.59
2023-01-06T17:48:26.841Z,101062.25
2023-01-06T17:50:56.897Z,101077.13
2023-01-06T17:53:47.096Z,101067.38
2023-01-06T17:56:14.707Z,101071.72
2023-01-06T17:58:43.935Z,101074.31
2023-01-06T18:01:20.522Z,101076.84
2023-01-06T18:03:48.708Z,101076.78
2023-01-06T18:06:25.965Z,101087.25
2023-01-06T18:09:10.959Z,101084.59
2023-01-06T18:11:41.303Z,101087.16
2023-01-06T18:14:28.931Z,101082.72
2023-01-06T18:16:59.044Z,101072.16
2023-01-06T18:19:30.852Z,101072.16
2023-01-06T18:22:03.125Z,101074.84
2023-01-06T18:24:35.368Z,101072.25
2023-01-06T18:27:04.759Z,101082.81
2023-01-06T18:29:36.707Z,101076.66
2023-01-06T18:32:37.082Z,101091.63
2023-01-06T18:35:07.166Z,101094.22
2023-01-06T18:37:37.211Z,101096.84
2023-01-06T18:40:07.356Z,101099.41
2023-01-06T18:42:37.593Z,101107.31
2023-01-06T18:45:20.066Z,101109.00
2023-01-06T18:47:51.290Z,101105.44
2023-01-06T18:50:25.709Z,101113.31
2023-01-06T18:52:55.510Z,101115.94
2023-01-06T18:55:42.784Z,101117.66
2023-01-06T18:58:24.958Z,101115.81
2023-01-06T19:00:55.109Z,101115.75
2023-01-06T19:03:39.088Z,101122.72
2023-01-06T19:06:34.293Z,101123.50
2023-01-06T19:09:11.699Z,101120.81
2023-01-06T19:11:39.433Z,101127.78
2023-01-06T19:14:13.017Z,101127.72
2023-01-06T19:16:47.678Z,101114.50
2023-01-06T19:19:22.858Z,101121.53
2023-01-06T19:21:51.241Z,101124.13
2023-01-06T19:24:38.507Z,101119.63
2023-01-06T19:27:21.464Z,101120.34
2023-01-06T19:29:49.073Z,101128.22
2023-01-06T19:32:16.625Z,101119.34
2023-01-06T19:34:44.224Z,101127.13
2023-01-06T19:37:16.057Z,101132.31
2023-01-06T19:39:48.670Z,101130.47
2023-01-06T19:42:22.747Z,101113.66
2023-01-06T19:44:54.236Z,101128.53
2023-01-06T19:47:25.127Z,101119.63
2023-01-06T19:49:56.047Z,101123.91
2023-01-06T19:52:33.714Z,101122.00
2023-01-06T19:55:18.114Z,101128.03
2023-01-06T19:57:50.495Z,101130.59
2023-01-06T20:00:27.660Z,101130.50
2023-01-06T20:02:58.056Z,101133.09
2023-01-06T20:05:26.715Z,101133.94
2023-01-06T20:07:54.782Z,101136.56
2023-01-06T20:10:23.746Z,101134.81
2023-01-06T20:12:51.275Z,101136.50
2023-01-06T20:15:18.965Z,101147.03
2023-01-06T20:17:46.480Z,101139.09
2023-01-06T20:20:14.153Z,101146.97
2023-01-06T20:22:41.692Z,101146.88
2023-01-06T20:25:09.770Z,101150.38
2023-01-06T20:27:38.591Z,101153.94
2023-01-06T20:30:07.061Z,101148.66
2023-01-06T20:32:34.578Z,101159.31
2023-01-06T20:35:02.167Z,101150.59
2023-01-06T20:37:29.692Z,101142.75
2023-01-06T20:39:57.226Z,101155.97
2023-01-06T20:42:24.747Z,101145.47
2023-01-06T20:44:53.594Z,101149.88
2023-01-06T20:47:21.181Z,101149.06
2023-01-06T20:49:48.778Z,101153.47
2023-01-06T20:52:16.316Z,101148.19
2023-01-06T20:54:43.819Z,101149.06
2023-01-06T20:57:11.338Z,101151.75
2023-01-06T20:59:38.859Z,101159.66
2023-01-06T21:02:07.864Z,101155.22
2023-01-06T21:04:36.390Z,101166.63
2023-01-06T21:07:03.973Z,101169.19
2023-01-06T21:09:31.730Z,101166.53
2023-01-06T21:11:59.334Z,101174.34
2023-01-06T21:14:26.930Z,101175.19
2023-01-06T21:16:54.578Z,101171.59
2023-01-06T21:19:23.473Z,101169.78
2023-01-06T21:21:51.058Z,101170.53
2023-01-06T21:24:18.636Z,101156.44
2023-01-06T21:26:46.305Z,101155.47
2023-01-06T21:29:13.839Z,101151.00
2023-01-06T21:31:43.226Z,101149.19
2023-01-06T21:34:11.109Z,101149.09
2023-01-06T21:36:40.777Z,101156.97
2023-01-06T21:39:08.657Z,101154.25
2023-01-06T21:41:53.884Z,101166.44
2023-01-06T21:44:21.739Z,101167.25
2023-01-06T21:46:49.377Z,101156.63
2023-01-06T21:49:16.929Z,101157.44
2023-01-06T21:51:47.319Z,101164.41
2023-01-06T21:54:14.874Z,101159.91
2023-01-06T21:56:42.387Z,101157.19
2023-01-06T21:59:10.714Z,101152.72
2023-01-06T22:01:38.455Z,101162.38
2023-01-06T22:04:06.074Z,101156.13
2023-01-06T22:06:34.146Z,101155.19
2023-01-06T22:09:06.978Z,101159.53
2023-01-06T22:11:37.921Z,101148.91
2023-01-06T22:14:06.321Z,101146.19
2023-01-06T22:16:34.417Z,101141.75
2023-01-06T22:19:02.023Z,101144.38
2023-01-06T22:21:29.678Z,101142.69
2023-01-06T22:23:58.545Z,101155.88
2023-01-06T22:26:27.432Z,101159.44
2023-01-06T22:28:54.994Z,101146.28
2023-01-06T22:31:22.594Z,101155.09
2023-01-06T22:33:50.151Z,101162.13
2023-01-06T22:36:17.751Z,101153.28
2023-01-06T22:38:45.449Z,101151.44
2023-01-06T22:41:12.984Z,101152.28
2023-01-06T22:43:41.862Z,101153.94
2023-01-06T22:46:09.711Z,101169.63
2023-01-06T22:48:37.329Z,101165.19
2023-01-06T22:51:06.671Z,101167.81
2023-01-06T22:53:34.737Z,101166.06
2023-01-06T22:56:04.064Z,101165.25
2023-01-06T22:58:32.042Z,101167.00
2023-01-06T23:01:00.998Z,101166.03
2023-01-06T23:03:28.723Z,101158.09
2023-01-06T23:05:57.423Z,101159.72
2023-01-06T23:08:26.169Z,101163.22
2023-01-06T23:10:59.736Z,101164.94
2023-01-06T23:13:27.347Z,101171.03
2023-01-06T23:16:04.738Z,101171.88
2023-01-06T23:18:33.026Z,101175.34
2023-01-06T23:21:01.933Z,101163.84
2023-01-06T23:23:31.449Z,101157.69
2023-01-06T23:26:02.900Z,101168.16
2023-01-06T23:28:30.476Z,101164.53
2023-01-06T23:31:04.332Z,101164.47
2023-01-06T23:33:32.167Z,101163.47
2023-01-06T23:36:03.182Z,101159.84
2023-01-06T23:38:31.559Z,101158.81
2023-01-06T23:41:03.729Z,101156.97
2023-01-06T23:43:32.479Z,101154.22
2023-01-06T23:46:01.427Z,101153.31
2023-01-06T23:48:31.761Z,101151.44
2023-01-06T23:51:00.113Z,101147.16
2023-01-06T23:53:29.181Z,101151.56
2023-01-06T23:55:58.111Z,101144.59
2023-01-06T23:58:26.434Z,101147.16
